Time;durP1;ratioP1;P1;durP2;ratioP2;P2;SDS_P1;SDS_P2;PMS_P1;PMS_P2;Temp;Humidity;BMP_temperature;BMP_pressure;BME280_temperature;BME280_humidity;BME280_pressure;Samples;Min_cycle;Max_cycle;Signal;HPM_P1;HPM_P2
2023/01/08 00:01:10;;;;;;;3.50;1.95;;;9.80;99.90;;;;;;5000464;28;20487;-73
2023/01/08 00:03:37;;;;;;;5.30;2.03;;;9.90;99.90;;;;;;5003064;28;20108;-73
2023/01/08 00:06:04;;;;;;;3.13;1.60;;;9.90;99.90;;;;;;4996986;28;20045;-76
2023/01/08 00:08:30;;;;;;;4.05;2.05;;;9.90;99.90;;;;;;4998944;28;20647;-73
2023/01/08 00:10:56;;;;;;;4.30;2.17;;;9.90;99.90;;;;;;4980652;28;20054;-73
2023/01/08 00:13:22;;;;;;;5.05;2.30;;;9.90;99.90;;;;;;5002656;28;20089;-73
2023/01/08 00:15:48;;;;;;;4.63;2.45;;;10.00;99.90;;;;;;4988097;28;20064;-73
2023/01/08 00:18:14;;;;;;;6.30;2.33;;;10.00;99.90;;;;;;4985355;28;20041;-73
2023/01/08 00:20:44;;;;;;;5.67;2.33;;;10.00;99.90;;;;;;4987871;28;20653;-74
2023/01/08 00:23:17;;;;;;;4.72;2.10;;;10.00;99.90;;;;;;4989389;28;20065;-75
2023/01/08 00:25:43;;;;;;;3.97;2.08;;;10.00;99.90;;;;;;4983816;28;20348;-74
2023/01/08 00:28:09;;;;;;;3.47;2.05;;;10.00;99.90;;;;;;4999709;28;20747;-75
2023/01/08 00:30:35;;;;;;;4.47;2.00;;;10.00;99.90;;;;;;5001920;28;20050;-73
2023/01/08 00:33:01;;;;;;;5.88;2.45;;;9.90;99.90;;;;;;4983285;28;20042;-74
2023/01/08 00:35:27;;;;;;;3.00;1.93;;;9.90;99.90;;;;;;4983131;28;20060;-74
2023/01/08 00:37:53;;;;;;;7.27;1.80;;;9.90;99.90;;;;;;4972325;28;20133;-74
2023/01/08 00:40:18;;;;;;;3.80;1.92;;;9.80;99.90;;;;;;4987957;28;20034;-76
2023/01/08 00:42:44;;;;;;;3.07;1.63;;;9.80;99.90;;;;;;4981640;28;20573;-73
2023/01/08 00:45:10;;;;;;;4.07;1.73;;;9.90;99.90;;;;;;5004458;28;20529;-74
2023/01/08 00:47:35;;;;;;;4.65;1.90;;;9.90;99.90;;;;;;5002535;28;20042;-77
2023/01/08 00:50:02;;;;;;;2.97;1.50;;;9.90;99.90;;;;;;4970444;28;20237;-74
2023/01/08 00:52:27;;;;;;;4.05;2.00;;;9.80;99.90;;;;;;4983384;28;20865;-75
2023/01/08 00:54:53;;;;;;;6.70;2.00;;;9.80;99.90;;;;;;4999278;28;20195;-74
2023/01/08 00:57:18;;;;;;;4.37;2.30;;;9.80;99.90;;;;;;4998091;28;20046;-74
2023/01/08 00:59:44;;;;;;;3.57;1.80;;;9.70;99.90;;;;;;5000810;28;20041;-74
2023/01/08 01:02:10;;;;;;;3.95;1.98;;;9.70;99.90;;;;;;5005615;28;20038;-76
2023/01/08 01:04:36;;;;;;;2.70;1.80;;;9.70;99.90;;;;;;4984687;28;20180;-74
2023/01/08 01:07:02;;;;;;;3.70;1.75;;;9.70;99.90;;;;;;4982146;28;20845;-73
2023/01/08 01:09:28;;;;;;;2.83;1.58;;;9.70;99.90;;;;;;4983877;28;20061;-81
2023/01/08 01:11:54;;;;;;;4.90;2.17;;;9.60;99.90;;;;;;4984607;28;20456;-74
2023/01/08 01:14:19;;;;;;;3.37;1.87;;;9.60;99.90;;;;;;4994632;28;20125;-76
2023/01/08 01:16:47;;;;;;;4.37;2.07;;;9.60;99.90;;;;;;4999179;28;20132;-77
2023/01/08 01:19:16;;;;;;;5.97;1.90;;;9.60;99.90;;;;;;5000560;28;20045;-77
2023/01/08 01:21:42;;;;;;;5.35;1.83;;;9.60;99.90;;;;;;5001221;28;20462;-74
2023/01/08 01:24:10;;;;;;;3.53;1.90;;;9.60;99.90;;;;;;4999749;28;20046;-73
2023/01/08 01:26:36;;;;;;;3.00;1.63;;;9.60;99.90;;;;;;4984891;28;20050;-76
2023/01/08 01:29:02;;;;;;;3.47;1.60;;;9.60;99.90;;;;;;4979412;28;20053;-75
2023/01/08 01:31:30;;;;;;;4.50;1.80;;;9.60;99.90;;;;;;4992753;28;20049;-75
2023/01/08 01:33:56;;;;;;;3.67;1.52;;;9.50;99.90;;;;;;4981048;28;20049;-76
2023/01/08 01:36:22;;;;;;;4.60;1.92;;;9.50;99.90;;;;;;5000194;28;20141;-75
2023/01/08 01:38:50;;;;;;;4.90;1.52;;;9.50;99.90;;;;;;4981799;28;20531;-74
2023/01/08 01:41:28;;;;;;;3.22;1.70;;;9.50;99.90;;;;;;4982310;28;20133;-74
2023/01/08 01:43:55;;;;;;;2.75;1.48;;;9.50;99.90;;;;;;4996629;28;20060;-75
2023/01/08 01:46:37;;;;;;;5.72;2.20;;;9.50;99.90;;;;;;4978007;28;20189;-76
2023/01/08 01:49:10;;;;;;;5.35;1.42;;;9.40;99.90;;;;;;4976652;28;20045;-73
2023/01/08 01:51:40;;;;;;;4.55;1.50;;;9.40;99.90;;;;;;4976871;28;20093;-73
2023/01/08 01:54:10;;;;;;;3.65;1.75;;;9.40;99.90;;;;;;4981803;28;20046;-74
2023/01/08 01:56:35;;;;;;;4.38;1.70;;;9.40;99.90;;;;;;4991868;28;20364;-77
2023/01/08 01:59:01;;;;;;;4.67;2.77;;;9.30;99.90;;;;;;4992097;28;20063;-75
2023/01/08 02:01:28;;;;;;;4.22;1.75;;;9.30;99.90;;;;;;4996422;28;20049;-76
2023/01/08 02:03:54;;;;;;;6.30;1.73;;;9.30;99.90;;;;;;4985465;28;20046;-75
2023/01/08 02:06:35;;;;;;;4.63;1.30;;;9.20;99.90;;;;;;4998860;28;20089;-73
2023/01/08 02:09:03;;;;;;;4.70;1.63;;;9.30;99.90;;;;;;4999811;28;20110;-76
2023/01/08 02:11:37;;;;;;;4.97;1.40;;;9.20;99.90;;;;;;5004606;28;20098;-73
2023/01/08 02:14:25;;;;;;;3.33;1.38;;;9.20;99.90;;;;;;4986508;28;20034;-74
2023/01/08 02:16:58;;;;;;;4.35;1.65;;;9.20;99.90;;;;;;4981544;28;20105;-72
2023/01/08 02:19:36;;;;;;;7.03;1.50;;;9.10;99.90;;;;;;5002046;28;20042;-74
2023/01/08 02:22:22;;;;;;;4.55;1.00;;;9.10;99.90;;;;;;4970391;28;20049;-75
2023/01/08 02:24:55;;;;;;;3.95;1.42;;;9.10;99.90;;;;;;5002507;28;20085;-76
2023/01/08 02:27:24;;;;;;;4.30;1.52;;;9.00;99.90;;;;;;4998396;28;20069;-73
2023/01/08 02:29:52;;;;;;;6.88;1.10;;;9.00;99.90;;;;;;4977826;28;20053;-74
2023/01/08 02:32:18;;;;;;;4.35;1.25;;;9.00;99.90;;;;;;5002860;28;20111;-74
2023/01/08 02:34:44;;;;;;;6.90;1.87;;;9.00;99.90;;;;;;4990419;28;20042;-74
2023/01/08 02:37:10;;;;;;;5.38;1.02;;;8.90;99.90;;;;;;4997468;28;20065;-75
2023/01/08 02:39:50;;;;;;;5.22;1.50;;;8.90;99.90;;;;;;4973976;28;20121;-75
2023/01/08 02:42:33;;;;;;;4.55;1.50;;;8.80;99.90;;;;;;4990165;28;20407;-73
2023/01/08 02:45:45;;;;;;;11.57;1.48;;;8.80;99.90;;;;;;5002725;28;20072;-76
2023/01/08 02:48:19;;;;;;;7.20;1.67;;;8.80;99.90;;;;;;4987668;28;20050;-76
2023/01/08 02:50:52;;;;;;;5.60;1.60;;;8.70;99.90;;;;;;5000122;28;20328;-74
2023/01/08 02:53:32;;;;;;;7.65;1.35;;;8.70;99.90;;;;;;4994398;28;20056;-77
2023/01/08 02:56:02;;;;;;;9.07;1.02;;;8.60;99.90;;;;;;4984003;28;20045;-77
2023/01/08 02:58:31;;;;;;;4.97;1.63;;;8.60;99.90;;;;;;4985819;28;20092;-76
2023/01/08 03:00:58;;;;;;;3.85;1.02;;;8.60;99.90;;;;;;4984606;28;20075;-77
2023/01/08 03:03:26;;;;;;;;;;;8.60;99.90;;;;;;5005621;28;20132;-77
2023/01/08 03:05:57;;;;;;;12.40;1.27;;;8.50;99.90;;;;;;4999107;28;20396;-74
2023/01/08 03:08:23;;;;;;;8.55;1.30;;;8.50;99.90;;;;;;4982340;28;20042;-75
2023/01/08 03:10:56;;;;;;;10.07;1.05;;;8.50;99.90;;;;;;4996530;28;20092;-73
2023/01/08 03:13:39;;;;;;;5.32;1.00;;;8.40;99.90;;;;;;4983962;28;20131;-74
2023/01/08 03:16:14;;;;;;;9.30;1.70;;;8.40;99.90;;;;;;5003353;28;20352;-76
2023/01/08 03:18:46;;;;;;;9.48;1.48;;;8.40;99.90;;;;;;4986508;28;20042;-73
2023/01/08 03:21:13;;;;;;;3.85;1.35;;;8.30;99.90;;;;;;4986066;28;20240;-77
2023/01/08 03:23:40;;;;;;;5.40;1.17;;;8.30;99.90;;;;;;5003985;28;20042;-73
2023/01/08 03:26:07;;;;;;;3.38;1.00;;;8.30;99.90;;;;;;5001412;28;20045;-74
2023/01/08 03:28:37;;;;;;;6.07;1.13;;;8.30;99.90;;;;;;4980505;28;20576;-73
2023/01/08 03:31:05;;;;;;;2.42;0.90;;;8.30;99.90;;;;;;5003102;28;20469;-73
2023/01/08 03:33:31;;;;;;;6.95;1.45;;;8.30;99.90;;;;;;4984867;28;20558;-76
2023/01/08 03:36:00;;;;;;;4.95;1.00;;;8.30;99.90;;;;;;4985188;28;20137;-75
2023/01/08 03:38:31;;;;;;;4.18;0.80;;;8.20;99.90;;;;;;4974333;28;20056;-72
2023/01/08 03:41:13;;;;;;;6.25;0.93;;;8.20;99.90;;;;;;5001272;28;20141;-73
2023/01/08 03:43:39;;;;;;;4.38;1.20;;;8.20;99.90;;;;;;5001370;28;20045;-77
2023/01/08 03:46:12;;;;;;;4.95;1.50;;;8.20;99.90;;;;;;4978628;28;20037;-76
2023/01/08 03:48:39;;;;;;;3.75;1.00;;;8.20;99.90;;;;;;5007381;28;20048;-80
2023/01/08 03:51:08;;;;;;;6.78;1.60;;;8.20;99.90;;;;;;4986570;28;20113;-78
2023/01/08 03:53:34;;;;;;;2.97;1.00;;;8.30;99.90;;;;;;4986783;28;20037;-75
2023/01/08 03:56:00;;;;;;;3.10;1.00;;;8.30;99.90;;;;;;4987792;28;20488;-75
2023/01/08 03:58:26;;;;;;;8.43;1.00;;;8.20;99.90;;;;;;4986119;28;20053;-75
2023/01/08 04:00:51;;;;;;;3.13;1.30;;;8.30;99.90;;;;;;5009628;28;20049;-74
2023/01/08 04:03:18;;;;;;;4.93;1.27;;;8.30;99.90;;;;;;4984570;28;20046;-73
2023/01/08 04:05:43;;;;;;;4.15;1.02;;;8.30;99.90;;;;;;4984458;28;20054;-75
2023/01/08 04:08:09;;;;;;;4.30;1.17;;;8.30;99.90;;;;;;4987864;28;20144;-73
2023/01/08 04:10:35;;;;;;;3.67;1.13;;;8.20;99.90;;;;;;4980143;28;20345;-74
2023/01/08 04:13:00;;;;;;;3.03;1.17;;;8.20;99.90;;;;;;5006478;28;20041;-77
2023/01/08 04:15:26;;;;;;;4.20;1.30;;;8.20;99.90;;;;;;5003750;28;20107;-74
2023/01/08 04:17:52;;;;;;;4.57;1.60;;;8.20;99.90;;;;;;5002622;28;20133;-74
2023/01/08 04:20:18;;;;;;;;;;;8.20;99.90;;;;;;4990177;28;20455;-74
2023/01/08 04:22:44;;;;;;;4.55;1.10;;;8.20;99.90;;;;;;4982874;28;19917;-73
2023/01/08 04:25:09;;;;;;;2.07;1.07;;;8.20;99.90;;;;;;4991028;28;20566;-77
2023/01/08 04:27:35;;;;;;;5.67;1.50;;;8.20;99.90;;;;;;5005035;28;20042;-73
2023/01/08 04:30:01;;;;;;;3.70;1.15;;;8.10;99.90;;;;;;4985945;28;20049;-74
2023/01/08 04:32:27;;;;;;;4.25;1.08;;;8.20;99.90;;;;;;4985325;28;20112;-74
2023/01/08 04:34:52;;;;;;;2.90;1.20;;;8.20;99.90;;;;;;5000352;28;20034;-75
2023/01/08 04:37:18;;;;;;;4.87;1.23;;;8.20;99.90;;;;;;5004604;28;20045;-77
2023/01/08 04:39:44;;;;;;;2.77;1.17;;;8.20;99.90;;;;;;5004001;28;20034;-73
2023/01/08 04:42:09;;;;;;;3.93;0.93;;;8.20;99.90;;;;;;4981545;28;20050;-76
2023/01/08 04:44:35;;;;;;;4.00;1.00;;;8.10;99.90;;;;;;5003817;28;20472;-74
2023/01/08 04:47:01;;;;;;;3.10;0.73;;;8.20;99.90;;;;;;4991815;28;20049;-73
2023/01/08 04:49:26;;;;;;;2.07;1.13;;;8.30;99.90;;;;;;4982372;28;20113;-75
2023/01/08 04:51:52;;;;;;;6.43;1.63;;;8.30;99.90;;;;;;4971652;28;20037;-73
2023/01/08 04:54:17;;;;;;;2.17;0.93;;;8.30;99.90;;;;;;5004462;28;20037;-75
2023/01/08 04:56:43;;;;;;;2.97;0.90;;;8.30;99.90;;;;;;5005248;28;20059;-73
2023/01/08 04:59:09;;;;;;;2.57;0.90;;;8.30;99.90;;;;;;4981804;28;20120;-73
2023/01/08 05:01:34;;;;;;;7.33;1.33;;;8.30;99.90;;;;;;4989475;28;20115;-74
2023/01/08 05:04:02;;;;;;;1.40;0.83;;;8.30;99.90;;;;;;5000538;28;20073;-76
2023/01/08 05:06:29;;;;;;;5.68;0.98;;;8.30;99.90;;;;;;4968221;28;20046;-78
2023/01/08 05:08:55;;;;;;;2.95;1.15;;;8.30;99.90;;;;;;4999472;28;20481;-74
2023/01/08 05:11:22;;;;;;;6.00;1.48;;;8.40;99.90;;;;;;4995116;28;20037;-74
2023/01/08 05:13:48;;;;;;;4.13;1.00;;;8.40;99.90;;;;;;4990326;28;20061;-75
2023/01/08 05:16:17;;;;;;;3.97;1.25;;;8.40;99.90;;;;;;4987685;28;20038;-74
2023/01/08 05:18:44;;;;;;;4.10;1.15;;;8.40;99.90;;;;;;4987090;28;20042;-74
2023/01/08 05:21:10;;;;;;;5.07;1.17;;;8.40;99.90;;;;;;4983731;28;20112;-74
2023/01/08 05:23:36;;;;;;;2.08;1.15;;;8.40;99.90;;;;;;4973337;28;20050;-73
2023/01/08 05:26:04;;;;;;;9.47;1.70;;;8.50;99.90;;;;;;4985563;28;20056;-71
2023/01/08 05:28:30;;;;;;;5.63;1.30;;;8.50;99.90;;;;;;4983728;28;20120;-70
2023/01/08 05:30:56;;;;;;;3.22;1.30;;;8.40;99.90;;;;;;4983965;28;20136;-72
2023/01/08 05:33:23;;;;;;;3.58;1.25;;;8.40;99.90;;;;;;5005346;28;20488;-71
2023/01/08 05:35:49;;;;;;;5.78;1.30;;;8.40;99.90;;;;;;4984429;28;20057;-71
2023/01/08 05:38:15;;;;;;;3.90;1.52;;;8.40;99.90;;;;;;4988733;28;20050;-70
2023/01/08 05:40:40;;;;;;;4.10;1.10;;;8.40;99.90;;;;;;5007460;28;20038;-71
2023/01/08 05:43:06;;;;;;;3.22;1.00;;;8.30;99.90;;;;;;5006362;28;20052;-71
2023/01/08 05:45:32;;;;;;;4.40;1.20;;;8.30;99.90;;;;;;4996478;28;20046;-70
2023/01/08 05:47:58;;;;;;;5.78;1.40;;;8.30;99.90;;;;;;5021280;22;20494;-68
2023/01/08 05:50:24;;;;;;;4.03;1.02;;;8.20;99.90;;;;;;5008941;28;20050;-68
2023/01/08 05:52:50;;;;;;;3.20;1.17;;;8.10;99.90;;;;;;5007079;28;20442;-68
2023/01/08 05:55:16;;;;;;;7.90;1.30;;;8.20;99.90;;;;;;5008954;28;20081;-68
2023/01/08 05:57:41;;;;;;;2.33;0.90;;;8.10;99.90;;;;;;4986063;28;20084;-68
2023/01/08 06:00:09;;;;;;;1.83;0.77;;;8.10;99.90;;;;;;4987711;28;20038;-68
2023/01/08 06:02:34;;;;;;;1.83;0.88;;;8.10;99.90;;;;;;4988381;28;20073;-68
2023/01/08 06:05:00;;;;;;;2.67;1.03;;;8.10;99.90;;;;;;4986944;28;20080;-70
2023/01/08 06:07:28;;;;;;;7.10;1.27;;;8.10;99.90;;;;;;4984505;28;20496;-68
2023/01/08 06:09:53;;;;;;;2.95;0.90;;;8.00;99.90;;;;;;4988424;28;20121;-68
2023/01/08 06:12:19;;;;;;;4.97;1.17;;;8.00;99.90;;;;;;4987268;28;20507;-67
2023/01/08 06:14:44;;;;;;;5.03;1.33;;;8.00;99.90;;;;;;4986897;28;20061;-67
2023/01/08 06:17:10;;;;;;;1.13;0.60;;;8.00;99.90;;;;;;4986316;28;20129;-68
2023/01/08 06:19:38;;;;;;;2.85;0.80;;;7.90;99.90;;;;;;4989302;28;20066;-67
2023/01/08 06:22:04;;;;;;;5.13;1.05;;;7.90;99.90;;;;;;4986979;28;20050;-68
2023/01/08 06:24:29;;;;;;;1.40;0.70;;;7.90;99.90;;;;;;4986139;28;20523;-68
2023/01/08 06:26:55;;;;;;;1.27;0.50;;;7.90;99.90;;;;;;4984257;28;20116;-68
2023/01/08 06:29:21;;;;;;;5.07;0.87;;;7.90;99.90;;;;;;4986204;28;20042;-68
2023/01/08 06:31:46;;;;;;;1.90;0.67;;;7.90;99.90;;;;;;4984629;28;20057;-68
2023/01/08 06:34:12;;;;;;;3.30;0.90;;;7.90;99.90;;;;;;5000176;28;20034;-68
2023/01/08 06:36:38;;;;;;;3.73;1.20;;;7.80;99.90;;;;;;4970018;28;20397;-68
2023/01/08 06:39:07;;;;;;;3.47;0.63;;;7.80;99.90;;;;;;4987876;28;20038;-68
2023/01/08 06:41:33;;;;;;;7.70;0.90;;;7.80;99.90;;;;;;4981731;28;20377;-67
2023/01/08 06:43:59;;;;;;;2.60;0.90;;;7.80;99.90;;;;;;4987029;28;20049;-68
2023/01/08 06:46:24;;;;;;;2.33;0.87;;;7.80;99.90;;;;;;4983657;28;20112;-68
2023/01/08 06:48:50;;;;;;;3.70;0.90;;;7.80;99.90;;;;;;4969275;28;20153;-68
2023/01/08 06:51:15;;;;;;;1.80;0.90;;;7.70;99.90;;;;;;4983952;28;20128;-68
2023/01/08 06:53:41;;;;;;;3.20;0.90;;;7.80;99.90;;;;;;4988504;28;20042;-68
2023/01/08 06:56:09;;;;;;;3.53;1.20;;;7.70;99.90;;;;;;4983094;28;20049;-68
2023/01/08 06:58:37;;;;;;;5.82;1.35;;;7.70;99.90;;;;;;4985210;28;20046;-68
2023/01/08 07:01:03;;;;;;;3.33;1.20;;;7.70;99.90;;;;;;4978583;28;20126;-68
2023/01/08 07:03:29;;;;;;;2.75;1.25;;;7.70;99.90;;;;;;4986283;28;20053;-68
2023/01/08 07:05:55;;;;;;;3.83;1.20;;;7.60;99.90;;;;;;4981760;28;20505;-68
2023/01/08 07:08:21;;;;;;;4.47;1.60;;;7.60;99.90;;;;;;4978859;28;20137;-69
2023/01/08 07:10:46;;;;;;;4.23;1.70;;;7.60;99.90;;;;;;4984807;28;20148;-68
2023/01/08 07:13:12;;;;;;;2.77;1.70;;;7.60;99.90;;;;;;4984520;28;20045;-69
2023/01/08 07:15:42;;;;;;;4.05;1.63;;;7.60;99.90;;;;;;4987591;28;20030;-68
2023/01/08 07:18:09;;;;;;;4.80;1.52;;;7.60;99.90;;;;;;4985421;28;20377;-68
2023/01/08 07:20:35;;;;;;;2.63;1.48;;;7.60;99.90;;;;;;4987639;28;20047;-68
2023/01/08 07:23:06;;;;;;;4.18;1.40;;;7.60;99.90;;;;;;4984871;28;20620;-68
2023/01/08 07:25:32;;;;;;;3.55;1.58;;;7.50;99.90;;;;;;4986236;28;20126;-68
2023/01/08 07:27:59;;;;;;;4.50;1.95;;;7.50;99.90;;;;;;4976434;28;20049;-68
2023/01/08 07:30:25;;;;;;;5.93;1.65;;;7.60;99.90;;;;;;4986487;28;20050;-68
2023/01/08 07:32:51;;;;;;;;;;;7.60;99.90;;;;;;4985418;28;20034;-68
2023/01/08 07:35:16;;;;;;;4.65;1.65;;;7.50;99.90;;;;;;4985876;28;19922;-67
2023/01/08 07:37:42;;;;;;;4.87;1.40;;;7.50;99.90;;;;;;4987172;28;20038;-67
2023/01/08 07:40:10;;;;;;;5.22;1.60;;;7.40;99.90;;;;;;4977924;28;20473;-67
2023/01/08 07:42:36;;;;;;;8.23;2.35;;;7.60;99.90;;;;;;4977613;28;20072;-68
2023/01/08 07:45:03;;;;;;;4.47;1.73;;;7.50;99.90;;;;;;4984422;28;20046;-68
2023/01/08 07:47:28;;;;;;;;;;;7.50;99.90;;;;;;4983361;28;20086;-68
2023/01/08 07:49:54;;;;;;;3.88;1.50;;;7.50;99.90;;;;;;4985305;28;19964;-67
2023/01/08 07:52:19;;;;;;;5.93;1.57;;;7.50;99.90;;;;;;4982980;28;20064;-68
2023/01/08 07:54:45;;;;;;;4.97;1.73;;;7.50;99.90;;;;;;4981036;28;20038;-67
2023/01/08 07:57:10;;;;;;;4.43;2.07;;;7.50;99.90;;;;;;4982635;28;21379;-68
2023/01/08 07:59:36;;;;;;;2.97;1.57;;;7.50;99.90;;;;;;4982350;28;20066;-68
2023/01/08 08:02:02;;;;;;;4.53;1.67;;;7.40;99.90;;;;;;4977331;28;20046;-67
2023/01/08 08:04:28;;;;;;;3.47;1.40;;;7.50;99.90;;;;;;4967492;28;20418;-67
2023/01/08 08:06:54;;;;;;;3.67;1.43;;;7.50;99.90;;;;;;4985969;28;20287;-68
2023/01/08 08:09:19;;;;;;;4.68;1.20;;;7.50;99.90;;;;;;4983606;28;20065;-67
2023/01/08 08:11:45;;;;;;;12.10;2.37;;;7.40;99.90;;;;;;4985013;28;20066;-68
2023/01/08 08:14:11;;;;;;;8.90;1.30;;;7.40;99.90;;;;;;4984012;28;20057;-68
2023/01/08 08:16:36;;;;;;;7.90;1.83;;;7.50;99.90;;;;;;4980727;28;20042;-68
2023/01/08 08:19:02;;;;;;;7.97;1.77;;;7.50;99.90;;;;;;4983491;28;20042;-68
2023/01/08 08:21:28;;;;;;;5.60;1.30;;;7.40;99.90;;;;;;4985592;28;20068;-68
2023/01/08 08:23:54;;;;;;;10.38;1.80;;;7.40;99.90;;;;;;4985031;28;20073;-67
2023/01/08 08:26:21;;;;;;;3.55;1.30;;;7.40;99.90;;;;;;4984040;28;20145;-67
2023/01/08 08:28:47;;;;;;;3.17;1.00;;;7.40;99.90;;;;;;4979321;28;20129;-67
2023/01/08 08:31:12;;;;;;;2.40;0.80;;;7.40;99.90;;;;;;4985822;28;20129;-68
2023/01/08 08:33:38;;;;;;;5.43;1.27;;;7.40;99.90;;;;;;4985165;28;20046;-68
2023/01/08 08:36:04;;;;;;;1.67;0.73;;;7.40;99.90;;;;;;4984118;28;20065;-68
2023/01/08 08:38:29;;;;;;;4.47;1.08;;;7.40;99.90;;;;;;4981085;28;20160;-67
2023/01/08 08:40:55;;;;;;;4.33;1.13;;;7.40;99.90;;;;;;4983828;28;20070;-68
2023/01/08 08:43:21;;;;;;;4.00;0.77;;;7.40;99.90;;;;;;4981086;28;20042;-68
2023/01/08 08:45:46;;;;;;;2.97;0.90;;;7.40;99.90;;;;;;4967059;28;20432;-68
2023/01/08 08:48:12;;;;;;;5.90;1.47;;;7.50;99.90;;;;;;4983552;28;20046;-68
2023/01/08 08:50:38;;;;;;;7.30;1.30;;;7.40;99.90;;;;;;4986413;28;20042;-68
2023/01/08 08:53:05;;;;;;;4.20;1.30;;;7.40;99.90;;;;;;4983738;28;20280;-68
2023/01/08 08:55:32;;;;;;;6.80;1.15;;;7.40;99.90;;;;;;4985021;28;20284;-69
2023/01/08 08:58:04;;;;;;;3.15;0.80;;;7.40;99.90;;;;;;4974147;28;20077;-68
2023/01/08 09:00:29;;;;;;;4.07;1.08;;;7.50;99.90;;;;;;4982416;28;20046;-68
2023/01/08 09:02:55;;;;;;;5.47;0.90;;;7.50;99.90;;;;;;4985394;28;20668;-69
2023/01/08 09:05:21;;;;;;;4.30;1.40;;;7.50;99.90;;;;;;4975151;28;20510;-68
2023/01/08 09:07:46;;;;;;;4.10;1.20;;;7.50;99.90;;;;;;4978294;28;20397;-68
2023/01/08 09:10:15;;;;;;;12.17;1.23;;;7.50;99.90;;;;;;4979365;28;20133;-68
2023/01/08 09:12:40;;;;;;;7.57;1.40;;;7.50;99.90;;;;;;4984094;28;20034;-68
2023/01/08 09:15:07;;;;;;;5.43;1.20;;;7.50;99.90;;;;;;4984221;28;20085;-69
2023/01/08 09:17:33;;;;;;;2.80;1.08;;;7.60;99.90;;;;;;4986164;28;20054;-68
2023/01/08 09:19:58;;;;;;;6.30;1.60;;;7.60;99.90;;;;;;4981424;28;20373;-68
2023/01/08 09:22:24;;;;;;;3.27;1.10;;;7.60;99.90;;;;;;4986518;28;20030;-68
2023/01/08 09:24:50;;;;;;;5.33;1.23;;;7.60;99.90;;;;;;4982617;28;20330;-68
2023/01/08 09:27:15;;;;;;;5.23;1.53;;;7.60;99.90;;;;;;4976975;28;20510;-68
2023/01/08 09:29:41;;;;;;;5.43;0.90;;;7.60;99.90;;;;;;4972705;28;20385;-68
2023/01/08 09:32:07;;;;;;;3.63;0.83;;;7.60;99.90;;;;;;4982855;28;20582;-68
2023/01/08 09:34:34;;;;;;;6.53;1.25;;;7.70;99.90;;;;;;4984228;28;20112;-68
2023/01/08 09:37:00;;;;;;;3.47;1.50;;;7.70;99.90;;;;;;4984849;28;20068;-69
2023/01/08 09:39:26;;;;;;;3.60;1.47;;;7.70;99.90;;;;;;4981005;28;20042;-68
2023/01/08 09:41:54;;;;;;;4.00;1.47;;;7.70;99.90;;;;;;4982744;28;20294;-68
2023/01/08 09:44:25;;;;;;;4.60;0.90;;;7.70;99.90;;;;;;4985913;28;20073;-69
2023/01/08 09:46:54;;;;;;;3.70;0.80;;;7.80;99.90;;;;;;4983766;28;20463;-68
2023/01/08 09:49:38;;;;;;;5.43;0.75;;;7.80;99.90;;;;;;4979079;28;20042;-69
2023/01/08 09:52:04;;;;;;;2.72;1.10;;;7.90;99.90;;;;;;4983869;28;20460;-68
2023/01/08 09:54:30;;;;;;;5.38;1.50;;;7.90;99.90;;;;;;4974442;28;20042;-69
2023/01/08 09:56:58;;;;;;;2.97;0.98;;;7.90;99.90;;;;;;4974312;28;20046;-68
2023/01/08 09:59:25;;;;;;;5.30;1.17;;;8.00;99.90;;;;;;4979049;28;20127;-68
2023/01/08 10:01:51;;;;;;;;;;;8.00;99.90;;;;;;4984416;28;20047;-68
2023/01/08 10:04:16;;;;;;;2.47;1.08;;;8.00;99.90;;;;;;4979468;28;19964;-68
2023/01/08 10:07:01;;;;;;;3.27;1.13;;;8.00;99.90;;;;;;4983856;28;20095;-68
2023/01/08 10:09:29;;;;;;;3.92;0.95;;;8.10;99.90;;;;;;4979977;28;20050;-69
2023/01/08 10:11:59;;;;;;;6.88;1.10;;;8.10;99.90;;;;;;4983314;28;20049;-69
2023/01/08 10:14:28;;;;;;;5.53;1.33;;;8.20;99.90;;;;;;4984123;28;20604;-68
2023/01/08 10:17:09;;;;;;;5.65;1.48;;;8.20;99.90;;;;;;4981275;28;20136;-68
2023/01/08 10:19:35;;;;;;;7.90;1.67;;;8.30;99.90;;;;;;4983761;28;20139;-68
2023/01/08 10:22:01;;;;;;;4.80;1.10;;;8.30;99.90;;;;;;4982850;28;20046;-68
2023/01/08 10:24:35;;;;;;;5.55;0.98;;;8.30;99.90;;;;;;4984700;28;20122;-68
2023/01/08 10:27:16;;;;;;;16.70;2.25;;;8.40;99.90;;;;;;4986590;28;20538;-68
2023/01/08 10:29:41;;;;;;;7.40;1.20;;;8.40;99.90;;;;;;4985478;28;20045;-69
2023/01/08 10:32:15;;;;;;;3.90;1.15;;;8.50;99.90;;;;;;4986324;28;20054;-68
2023/01/08 10:34:45;;;;;;;3.22;0.77;;;8.50;99.90;;;;;;4973858;28;20089;-69
2023/01/08 10:37:31;;;;;;;6.07;1.60;;;8.50;99.90;;;;;;4982801;28;20567;-69
2023/01/08 10:40:18;;;;;;;4.20;1.50;;;8.60;99.90;;;;;;4981680;28;20433;-69
2023/01/08 10:42:45;;;;;;;4.60;1.13;;;8.60;99.90;;;;;;4983032;28;20038;-69
2023/01/08 10:45:20;;;;;;;2.60;0.75;;;8.70;99.90;;;;;;4984906;28;20496;-68
2023/01/08 10:47:49;;;;;;;5.20;1.17;;;8.70;99.90;;;;;;4987578;28;20117;-68
2023/01/08 10:50:29;;;;;;;5.18;1.30;;;8.80;99.90;;;;;;4988172;28;20082;-68
2023/01/08 10:53:19;;;;;;;6.93;1.65;;;8.80;99.90;;;;;;4982796;28;20043;-68
2023/01/08 10:56:05;;;;;;;9.13;1.83;;;8.90;99.90;;;;;;4985382;28;20499;-69
2023/01/08 10:58:40;;;;;;;14.30;1.45;;;8.90;99.90;;;;;;4978525;28;20045;-68
2023/01/08 11:01:17;;;;;;;6.63;1.17;;;8.90;99.90;;;;;;4983481;28;20046;-70
2023/01/08 11:03:51;;;;;;;9.50;2.05;;;8.90;99.90;;;;;;4986849;28;20129;-68
2023/01/08 11:06:27;;;;;;;4.55;1.45;;;9.00;99.90;;;;;;4978738;28;20054;-69
2023/01/08 11:09:02;;;;;;;7.53;1.20;;;9.00;99.90;;;;;;4985516;28;20100;-69
2023/01/08 11:11:35;;;;;;;3.33;1.42;;;8.90;99.90;;;;;;4981680;28;20046;-69
2023/01/08 11:14:04;;;;;;;6.03;1.08;;;8.90;99.90;;;;;;4983008;28;20100;-69
2023/01/08 11:16:35;;;;;;;6.47;1.30;;;8.90;99.90;;;;;;4983735;28;20035;-68
2023/01/08 11:19:01;;;;;;;7.50;1.50;;;8.90;99.90;;;;;;4986204;28;20053;-68
2023/01/08 11:21:30;;;;;;;7.00;0.88;;;8.90;99.90;;;;;;4986686;28;20046;-68
2023/01/08 11:24:20;;;;;;;7.78;0.95;;;8.90;99.90;;;;;;4985336;28;20062;-69
2023/01/08 11:26:57;;;;;;;9.73;1.67;;;8.80;99.90;;;;;;4979106;28;20404;-69
2023/01/08 11:29:22;;;;;;;;;;;8.80;99.90;;;;;;4985737;28;20046;-68
2023/01/08 11:32:09;;;;;;;9.18;1.00;;;8.80;99.90;;;;;;4996013;28;19936;-69
2023/01/08 11:34:53;;;;;;;5.90;1.57;;;8.90;99.90;;;;;;4982034;28;20049;-68
2023/01/08 11:37:20;;;;;;;3.60;1.55;;;9.00;99.90;;;;;;4985460;28;20120;-68
2023/01/08 11:39:46;;;;;;;6.55;2.33;;;9.10;99.90;;;;;;4983619;28;20153;-69
2023/01/08 11:42:28;;;;;;;9.33;1.67;;;9.10;99.90;;;;;;4979414;28;20146;-69
2023/01/08 11:45:06;;;;;;;5.57;1.02;;;9.20;99.90;;;;;;4979595;28;20455;-69
2023/01/08 11:50:19;;;;;;;8.73;1.40;;;9.20;99.90;;;;;;5080321;22;20136;-71
2023/01/08 11:52:57;;;;;;;11.20;2.00;;;9.10;99.90;;;;;;5025755;28;20098;-72
2023/01/08 11:55:35;;;;;;;8.65;2.13;;;9.10;99.90;;;;;;5029051;28;20348;-71
2023/01/08 11:58:43;;;;;;;9.00;2.10;;;9.00;99.90;;;;;;5041999;28;20032;-76
2023/01/08 12:01:47;;;;;;;12.85;2.80;;;9.00;99.90;;;;;;5041870;28;20064;-72
2023/01/08 12:04:40;;;;;;;7.82;1.42;;;9.00;99.90;;;;;;5018597;28;20466;-73
2023/01/08 12:07:48;;;;;;;6.40;2.38;;;9.00;99.90;;;;;;5020855;28;20366;-73
2023/01/08 12:10:26;;;;;;;6.43;1.50;;;9.10;99.90;;;;;;4934122;28;20058;-74
2023/01/08 12:13:18;;;;;;;9.18;1.65;;;9.20;99.90;;;;;;5010067;28;20118;-73
2023/01/08 12:15:59;;;;;;;8.80;1.80;;;9.20;99.90;;;;;;5039209;28;20045;-72
2023/01/08 12:18:43;;;;;;;11.82;1.65;;;9.30;99.90;;;;;;5037318;28;20258;-76
2023/01/08 12:21:38;;;;;;;6.93;2.38;;;9.40;99.90;;;;;;5040737;28;20398;-72
2023/01/08 12:24:22;;;;;;;3.70;1.58;;;9.40;99.90;;;;;;5021385;28;20486;-73
2023/01/08 12:26:59;;;;;;;8.18;1.70;;;9.40;99.90;;;;;;5014832;28;21744;-72
2023/01/08 12:29:37;;;;;;;6.80;1.97;;;9.40;99.90;;;;;;5015511;28;20045;-72
2023/01/08 12:32:19;;;;;;;7.95;1.85;;;9.40;99.90;;;;;;5036315;28;20122;-72
2023/01/08 12:34:54;;;;;;;5.03;1.85;;;9.40;99.90;;;;;;5022114;28;20093;-72
2023/01/08 12:37:28;;;;;;;7.95;1.42;;;9.40;99.90;;;;;;5039910;28;20037;-74
2023/01/08 12:40:17;;;;;;;3.20;1.52;;;9.40;99.90;;;;;;5011523;28;20270;-74
2023/01/08 12:42:44;;;;;;;6.32;1.55;;;9.40;99.90;;;;;;5039738;28;20051;-72
2023/01/08 12:45:22;;;;;;;8.07;2.45;;;9.40;99.90;;;;;;5028575;28;20514;-73
2023/01/08 12:47:55;;;;;;;9.35;1.90;;;9.40;99.90;;;;;;5039931;28;20139;-75
2023/01/08 12:50:40;;;;;;;5.55;1.52;;;9.40;99.90;;;;;;5001052;28;20468;-74
2023/01/08 12:53:17;;;;;;;7.82;1.88;;;9.40;99.90;;;;;;5023657;28;20075;-76
2023/01/08 12:56:12;;;;;;;9.35;2.00;;;9.40;99.90;;;;;;5021593;28;20059;-74
2023/01/08 12:58:48;;;;;;;3.72;1.30;;;9.40;99.90;;;;;;5037641;28;20333;-71
2023/01/08 13:01:38;;;;;;;9.40;1.75;;;9.40;99.90;;;;;;5019532;28;20095;-75
2023/01/08 13:04:08;;;;;;;11.32;1.48;;;9.30;99.90;;;;;;5018312;28;20086;-74
2023/01/08 13:06:34;;;;;;;6.35;2.20;;;9.40;99.90;;;;;;5021672;28;20045;-72
2023/01/08 13:09:00;;;;;;;;;;;9.50;99.90;;;;;;5021123;28;20041;-73
2023/01/08 13:11:37;;;;;;;5.78;1.65;;;9.40;99.90;;;;;;5038557;28;19948;-76
2023/01/08 13:14:06;;;;;;;11.27;2.30;;;9.40;99.90;;;;;;5020054;28;20055;-72